Аэропорт: Магнитогорск. Магнитогорск

ICAO: USCM

METAR:
2018/09/23 11:00
USCM 231100Z 22003MPS 9999 FEW040 19/09 Q1019 R18/090065 NOSIG RMK QFE727
METAR:
Информация по данной станции не доступна